sensor_id;sensor_type;location;lat;lon;timestamp;P1;durP1;ratioP1;P2;durP2;ratioP2
21301;SDS011;10810;48.270;9.996;2023-06-26T00:00:25;11.03;;;5.57;;
21301;SDS011;10810;48.270;9.996;2023-06-26T00:03:04;10.47;;;5.53;;
21301;SDS011;10810;48.270;9.996;2023-06-26T00:05:31;10.77;;;5.07;;
21301;SDS011;10810;48.270;9.996;2023-06-26T00:07:59;10.87;;;5.33;;
21301;SDS011;10810;48.270;9.996;2023-06-26T00:10:26;10.83;;;5.37;;
21301;SDS011;10810;48.270;9.996;2023-06-26T00:12:55;11.57;;;5.10;;
21301;SDS011;10810;48.270;9.996;2023-06-26T00:15:23;11.07;;;5.50;;
21301;SDS011;10810;48.270;9.996;2023-06-26T00:17:52;11.33;;;5.50;;
21301;SDS011;10810;48.270;9.996;2023-06-26T00:20:20;11.43;;;5.20;;
21301;SDS011;10810;48.270;9.996;2023-06-26T00:22:48;14.07;;;5.47;;
21301;SDS011;10810;48.270;9.996;2023-06-26T00:25:15;9.87;;;5.40;;
21301;SDS011;10810;48.270;9.996;2023-06-26T00:28:01;11.50;;;5.53;;
21301;SDS011;10810;48.270;9.996;2023-06-26T00:30:52;12.20;;;5.37;;
21301;SDS011;10810;48.270;9.996;2023-06-26T00:34:00;11.80;;;5.60;;
21301;SDS011;10810;48.270;9.996;2023-06-26T00:36:29;11.43;;;5.13;;
21301;SDS011;10810;48.270;9.996;2023-06-26T00:38:58;10.10;;;5.13;;
21301;SDS011;10810;48.270;9.996;2023-06-26T00:41:28;9.97;;;5.07;;
21301;SDS011;10810;48.270;9.996;2023-06-26T00:43:55;10.70;;;5.37;;
21301;SDS011;10810;48.270;9.996;2023-06-26T00:49:31;11.00;;;5.17;;
21301;SDS011;10810;48.270;9.996;2023-06-26T00:52:00;10.53;;;5.17;;
21301;SDS011;10810;48.270;9.996;2023-06-26T00:54:47;10.47;;;5.17;;
21301;SDS011;10810;48.270;9.996;2023-06-26T00:57:38;10.30;;;5.17;;
21301;SDS011;10810;48.270;9.996;2023-06-26T01:00:18;11.17;;;5.70;;
21301;SDS011;10810;48.270;9.996;2023-06-26T01:05:51;11.57;;;5.77;;
21301;SDS011;10810;48.270;9.996;2023-06-26T01:08:31;12.57;;;5.93;;
21301;SDS011;10810;48.270;9.996;2023-06-26T01:14:09;12.37;;;5.83;;
21301;SDS011;10810;48.270;9.996;2023-06-26T01:22:28;10.13;;;5.23;;
21301;SDS011;10810;48.270;9.996;2023-06-26T01:25:11;13.47;;;5.67;;
21301;SDS011;10810;48.270;9.996;2023-06-26T01:30:54;10.10;;;5.10;;
21301;SDS011;10810;48.270;9.996;2023-06-26T01:33:37;10.60;;;5.50;;
21301;SDS011;10810;48.270;9.996;2023-06-26T01:36:39;13.13;;;5.47;;
21301;SDS011;10810;48.270;9.996;2023-06-26T01:39:27;13.27;;;5.70;;
21301;SDS011;10810;48.270;9.996;2023-06-26T01:41:56;11.87;;;5.40;;
21301;SDS011;10810;48.270;9.996;2023-06-26T01:44:47;12.80;;;5.97;;
21301;SDS011;10810;48.270;9.996;2023-06-26T01:50:40;11.43;;;5.63;;
21301;SDS011;10810;48.270;9.996;2023-06-26T01:53:17;10.00;;;5.10;;
21301;SDS011;10810;48.270;9.996;2023-06-26T01:55:51;12.87;;;5.30;;
21301;SDS011;10810;48.270;9.996;2023-06-26T01:58:35;13.60;;;5.43;;
21301;SDS011;10810;48.270;9.996;2023-06-26T02:04:06;12.50;;;6.00;;
21301;SDS011;10810;48.270;9.996;2023-06-26T02:06:47;12.07;;;5.40;;
21301;SDS011;10810;48.270;9.996;2023-06-26T02:09:45;10.53;;;5.57;;
21301;SDS011;10810;48.270;9.996;2023-06-26T02:12:38;15.93;;;5.40;;
21301;SDS011;10810;48.270;9.996;2023-06-26T02:15:07;11.57;;;5.17;;
21301;SDS011;10810;48.270;9.996;2023-06-26T02:20:45;11.10;;;5.40;;
21301;SDS011;10810;48.270;9.996;2023-06-26T02:23:31;11.00;;;5.10;;
21301;SDS011;10810;48.270;9.996;2023-06-26T02:26:03;12.83;;;5.83;;
21301;SDS011;10810;48.270;9.996;2023-06-26T02:28:51;11.63;;;5.70;;
21301;SDS011;10810;48.270;9.996;2023-06-26T02:31:37;16.53;;;5.77;;
21301;SDS011;10810;48.270;9.996;2023-06-26T02:34:44;13.67;;;5.27;;
21301;SDS011;10810;48.270;9.996;2023-06-26T02:37:41;14.63;;;5.77;;
21301;SDS011;10810;48.270;9.996;2023-06-26T02:40:27;10.90;;;5.50;;
21301;SDS011;10810;48.270;9.996;2023-06-26T02:42:59;10.17;;;5.40;;
21301;SDS011;10810;48.270;9.996;2023-06-26T02:45:30;11.63;;;5.60;;
21301;SDS011;10810;48.270;9.996;2023-06-26T02:48:04;13.37;;;5.47;;
21301;SDS011;10810;48.270;9.996;2023-06-26T02:50:32;14.70;;;6.27;;
21301;SDS011;10810;48.270;9.996;2023-06-26T02:53:19;12.73;;;5.77;;
21301;SDS011;10810;48.270;9.996;2023-06-26T02:56:33;13.70;;;6.20;;
21301;SDS011;10810;48.270;9.996;2023-06-26T02:59:22;12.20;;;5.80;;
21301;SDS011;10810;48.270;9.996;2023-06-26T03:02:01;14.10;;;6.00;;
21301;SDS011;10810;48.270;9.996;2023-06-26T03:07:01;13.57;;;6.00;;
21301;SDS011;10810;48.270;9.996;2023-06-26T03:08:14;12.03;;;5.97;;
21301;SDS011;10810;48.270;9.996;2023-06-26T03:10:43;13.17;;;5.73;;
21301;SDS011;10810;48.270;9.996;2023-06-26T03:13:11;10.87;;;5.40;;
21301;SDS011;10810;48.270;9.996;2023-06-26T03:15:38;11.67;;;5.90;;
21301;SDS011;10810;48.270;9.996;2023-06-26T03:18:12;10.83;;;5.50;;
21301;SDS011;10810;48.270;9.996;2023-06-26T03:20:40;15.67;;;6.30;;
21301;SDS011;10810;48.270;9.996;2023-06-26T03:23:22;12.30;;;6.00;;
21301;SDS011;10810;48.270;9.996;2023-06-26T03:25:50;13.00;;;5.70;;
21301;SDS011;10810;48.270;9.996;2023-06-26T03:28:22;12.50;;;5.70;;
21301;SDS011;10810;48.270;9.996;2023-06-26T03:31:11;11.90;;;5.60;;
21301;SDS011;10810;48.270;9.996;2023-06-26T03:33:47;12.90;;;5.63;;
21301;SDS011;10810;48.270;9.996;2023-06-26T03:36:31;14.00;;;6.20;;
21301;SDS011;10810;48.270;9.996;2023-06-26T03:39:09;14.23;;;6.43;;
21301;SDS011;10810;48.270;9.996;2023-06-26T03:41:36;13.97;;;6.17;;
21301;SDS011;10810;48.270;9.996;2023-06-26T03:44:05;13.23;;;6.27;;
21301;SDS011;10810;48.270;9.996;2023-06-26T03:46:44;15.47;;;6.13;;
21301;SDS011;10810;48.270;9.996;2023-06-26T03:49:21;12.60;;;5.70;;
21301;SDS011;10810;48.270;9.996;2023-06-26T03:51:50;14.27;;;6.07;;
21301;SDS011;10810;48.270;9.996;2023-06-26T03:54:27;11.87;;;5.80;;
21301;SDS011;10810;48.270;9.996;2023-06-26T03:57:04;14.63;;;6.00;;
21301;SDS011;10810;48.270;9.996;2023-06-26T03:59:44;11.17;;;5.80;;
21301;SDS011;10810;48.270;9.996;2023-06-26T04:02:28;13.33;;;6.30;;
21301;SDS011;10810;48.270;9.996;2023-06-26T04:05:07;15.23;;;6.57;;
21301;SDS011;10810;48.270;9.996;2023-06-26T04:07:41;12.27;;;6.17;;
21301;SDS011;10810;48.270;9.996;2023-06-26T04:10:16;12.03;;;6.13;;
21301;SDS011;10810;48.270;9.996;2023-06-26T04:12:54;13.73;;;6.43;;
21301;SDS011;10810;48.270;9.996;2023-06-26T04:15:25;14.07;;;6.67;;
21301;SDS011;10810;48.270;9.996;2023-06-26T04:17:56;13.73;;;6.33;;
21301;SDS011;10810;48.270;9.996;2023-06-26T04:21:14;13.23;;;6.20;;
21301;SDS011;10810;48.270;9.996;2023-06-26T04:23:44;16.57;;;6.47;;
21301;SDS011;10810;48.270;9.996;2023-06-26T04:26:23;13.43;;;6.60;;
21301;SDS011;10810;48.270;9.996;2023-06-26T04:29:12;13.83;;;6.57;;
21301;SDS011;10810;48.270;9.996;2023-06-26T04:31:42;15.00;;;6.70;;
21301;SDS011;10810;48.270;9.996;2023-06-26T04:34:11;14.97;;;7.10;;
21301;SDS011;10810;48.270;9.996;2023-06-26T04:36:44;15.27;;;6.27;;
21301;SDS011;10810;48.270;9.996;2023-06-26T04:39:41;14.93;;;6.97;;
21301;SDS011;10810;48.270;9.996;2023-06-26T04:42:24;14.23;;;6.33;;
21301;SDS011;10810;48.270;9.996;2023-06-26T04:44:51;13.50;;;6.77;;
21301;SDS011;10810;48.270;9.996;2023-06-26T04:47:40;15.83;;;7.57;;
21301;SDS011;10810;48.270;9.996;2023-06-26T04:50:23;16.50;;;6.83;;
21301;SDS011;10810;48.270;9.996;2023-06-26T04:52:54;18.23;;;7.53;;
21301;SDS011;10810;48.270;9.996;2023-06-26T04:55:42;17.20;;;7.43;;
21301;SDS011;10810;48.270;9.996;2023-06-26T04:58:45;15.97;;;7.00;;
21301;SDS011;10810;48.270;9.996;2023-06-26T05:01:19;15.40;;;6.80;;
21301;SDS011;10810;48.270;9.996;2023-06-26T05:04:21;15.53;;;7.23;;
21301;SDS011;10810;48.270;9.996;2023-06-26T05:07:09;15.70;;;6.80;;
21301;SDS011;10810;48.270;9.996;2023-06-26T05:09:42;13.90;;;6.73;;
21301;SDS011;10810;48.270;9.996;2023-06-26T05:13:05;16.20;;;7.30;;
21301;SDS011;10810;48.270;9.996;2023-06-26T05:25:15;18.57;;;7.43;;
21301;SDS011;10810;48.270;9.996;2023-06-26T05:28:04;16.93;;;7.70;;
21301;SDS011;10810;48.270;9.996;2023-06-26T05:30:54;24.17;;;7.43;;
21301;SDS011;10810;48.270;9.996;2023-06-26T05:33:27;17.10;;;6.90;;
21301;SDS011;10810;48.270;9.996;2023-06-26T05:35:55;17.70;;;7.20;;
21301;SDS011;10810;48.270;9.996;2023-06-26T05:41:37;16.37;;;6.70;;
21301;SDS011;10810;48.270;9.996;2023-06-26T05:44:43;19.00;;;7.07;;
21301;SDS011;10810;48.270;9.996;2023-06-26T05:50:29;14.23;;;6.40;;
21301;SDS011;10810;48.270;9.996;2023-06-26T05:53:14;19.23;;;6.60;;
21301;SDS011;10810;48.270;9.996;2023-06-26T05:56:11;16.60;;;6.97;;
21301;SDS011;10810;48.270;9.996;2023-06-26T05:59:09;20.00;;;7.00;;
21301;SDS011;10810;48.270;9.996;2023-06-26T06:01:55;18.13;;;6.73;;
21301;SDS011;10810;48.270;9.996;2023-06-26T06:09:19;16.43;;;6.90;;
21301;SDS011;10810;48.270;9.996;2023-06-26T06:11:07;17.87;;;6.37;;
21301;SDS011;10810;48.270;9.996;2023-06-26T06:16:47;18.97;;;7.30;;
21301;SDS011;10810;48.270;9.996;2023-06-26T06:19:40;15.27;;;6.67;;
21301;SDS011;10810;48.270;9.996;2023-06-26T06:25:32;13.80;;;6.83;;
21301;SDS011;10810;48.270;9.996;2023-06-26T06:28:02;12.53;;;6.70;;
21301;SDS011;10810;48.270;9.996;2023-06-26T06:30:33;15.87;;;6.40;;
21301;SDS011;10810;48.270;9.996;2023-06-26T06:33:15;14.43;;;6.80;;
21301;SDS011;10810;48.270;9.996;2023-06-26T06:36:05;13.05;;;6.32;;
21301;SDS011;10810;48.270;9.996;2023-06-26T06:38:46;14.38;;;6.20;;
21301;SDS011;10810;48.270;9.996;2023-06-26T06:41:17;13.35;;;6.25;;
21301;SDS011;10810;48.270;9.996;2023-06-26T06:44:06;14.00;;;6.57;;
21301;SDS011;10810;48.270;9.996;2023-06-26T06:46:59;12.43;;;6.07;;
21301;SDS011;10810;48.270;9.996;2023-06-26T06:49:30;11.68;;;6.20;;
21301;SDS011;10810;48.270;9.996;2023-06-26T06:52:33;15.50;;;6.22;;
21301;SDS011;10810;48.270;9.996;2023-06-26T06:55:29;12.00;;;5.90;;
21301;SDS011;10810;48.270;9.996;2023-06-26T06:58:17;13.02;;;6.15;;
21301;SDS011;10810;48.270;9.996;2023-06-26T07:01:23;11.65;;;5.90;;
21301;SDS011;10810;48.270;9.996;2023-06-26T07:07:09;12.25;;;5.75;;
21301;SDS011;10810;48.270;9.996;2023-06-26T07:10:26;12.40;;;6.03;;
21301;SDS011;10810;48.270;9.996;2023-06-26T07:13:00;11.63;;;5.95;;
21301;SDS011;10810;48.270;9.996;2023-06-26T07:15:54;14.57;;;5.95;;
21301;SDS011;10810;48.270;9.996;2023-06-26T07:18:42;12.35;;;6.05;;
21301;SDS011;10810;48.270;9.996;2023-06-26T07:21:38;12.38;;;5.80;;
21301;SDS011;10810;48.270;9.996;2023-06-26T07:24:34;12.10;;;5.88;;
21301;SDS011;10810;48.270;9.996;2023-06-26T07:27:26;12.43;;;5.93;;
21301;SDS011;10810;48.270;9.996;2023-06-26T07:30:15;15.38;;;5.95;;
21301;SDS011;10810;48.270;9.996;2023-06-26T07:32:51;12.48;;;6.10;;
21301;SDS011;10810;48.270;9.996;2023-06-26T07:35:25;13.25;;;6.00;;
21301;SDS011;10810;48.270;9.996;2023-06-26T07:38:22;11.27;;;6.18;;
21301;SDS011;10810;48.270;9.996;2023-06-26T07:41:04;10.90;;;5.63;;
21301;SDS011;10810;48.270;9.996;2023-06-26T07:43:38;10.63;;;5.85;;
21301;SDS011;10810;48.270;9.996;2023-06-26T07:46:07;11.35;;;5.35;;
21301;SDS011;10810;48.270;9.996;2023-06-26T07:48:41;13.18;;;5.95;;
21301;SDS011;10810;48.270;9.996;2023-06-26T07:51:11;9.85;;;5.65;;
21301;SDS011;10810;48.270;9.996;2023-06-26T07:53:45;10.70;;;5.85;;
21301;SDS011;10810;48.270;9.996;2023-06-26T07:56:17;12.43;;;5.97;;
21301;SDS011;10810;48.270;9.996;2023-06-26T07:58:45;10.70;;;5.43;;
21301;SDS011;10810;48.270;9.996;2023-06-26T08:01:15;14.00;;;5.45;;
21301;SDS011;10810;48.270;9.996;2023-06-26T08:04:02;10.30;;;5.68;;
21301;SDS011;10810;48.270;9.996;2023-06-26T08:06:35;9.25;;;5.55;;
21301;SDS011;10810;48.270;9.996;2023-06-26T08:09:05;9.38;;;5.55;;
21301;SDS011;10810;48.270;9.996;2023-06-26T08:11:48;12.05;;;5.78;;
21301;SDS011;10810;48.270;9.996;2023-06-26T08:14:23;11.80;;;5.88;;
21301;SDS011;10810;48.270;9.996;2023-06-26T08:20:35;11.13;;;5.97;;
21301;SDS011;10810;48.270;9.996;2023-06-26T08:23:25;11.43;;;5.72;;
21301;SDS011;10810;48.270;9.996;2023-06-26T08:26:07;11.75;;;5.85;;
21301;SDS011;10810;48.270;9.996;2023-06-26T08:28:38;11.50;;;6.15;;
21301;SDS011;10810;48.270;9.996;2023-06-26T08:31:07;9.68;;;5.50;;
21301;SDS011;10810;48.270;9.996;2023-06-26T08:33:34;9.27;;;5.68;;
21301;SDS011;10810;48.270;9.996;2023-06-26T08:36:01;8.77;;;5.35;;
21301;SDS011;10810;48.270;9.996;2023-06-26T08:38:34;8.40;;;5.50;;
21301;SDS011;10810;48.270;9.996;2023-06-26T08:41:01;8.98;;;5.38;;
21301;SDS011;10810;48.270;9.996;2023-06-26T08:43:34;8.35;;;5.28;;
21301;SDS011;10810;48.270;9.996;2023-06-26T08:56:15;8.60;;;5.22;;
21301;SDS011;10810;48.270;9.996;2023-06-26T08:59:01;8.85;;;4.72;;
21301;SDS011;10810;48.270;9.996;2023-06-26T09:01:50;7.25;;;4.68;;
21301;SDS011;10810;48.270;9.996;2023-06-26T09:04:40;9.35;;;4.70;;
21301;SDS011;10810;48.270;9.996;2023-06-26T09:07:19;7.15;;;4.68;;
21301;SDS011;10810;48.270;9.996;2023-06-26T09:09:58;7.72;;;4.70;;
21301;SDS011;10810;48.270;9.996;2023-06-26T09:12:45;7.35;;;4.88;;
21301;SDS011;10810;48.270;9.996;2023-06-26T09:15:22;7.03;;;4.75;;
21301;SDS011;10810;48.270;9.996;2023-06-26T09:17:49;7.50;;;4.50;;
21301;SDS011;10810;48.270;9.996;2023-06-26T09:20:17;6.72;;;4.60;;
21301;SDS011;10810;48.270;9.996;2023-06-26T09:26:02;7.30;;;4.60;;
21301;SDS011;10810;48.270;9.996;2023-06-26T09:28:48;7.55;;;4.78;;
21301;SDS011;10810;48.270;9.996;2023-06-26T09:31:41;5.65;;;4.20;;
21301;SDS011;10810;48.270;9.996;2023-06-26T09:34:13;6.95;;;4.45;;
21301;SDS011;10810;48.270;9.996;2023-06-26T09:36:58;8.90;;;4.97;;
21301;SDS011;10810;48.270;9.996;2023-06-26T09:39:58;8.32;;;4.50;;
21301;SDS011;10810;48.270;9.996;2023-06-26T09:42:30;7.57;;;4.68;;
21301;SDS011;10810;48.270;9.996;2023-06-26T09:44:59;6.80;;;4.75;;
21301;SDS011;10810;48.270;9.996;2023-06-26T09:47:37;6.15;;;4.50;;
21301;SDS011;10810;48.270;9.996;2023-06-26T09:52:55;7.88;;;5.13;;
21301;SDS011;10810;48.270;9.996;2023-06-26T09:58:30;8.25;;;4.70;;
21301;SDS011;10810;48.270;9.996;2023-06-26T10:01:03;6.28;;;4.45;;
21301;SDS011;10810;48.270;9.996;2023-06-26T10:03:34;8.95;;;4.60;;
21301;SDS011;10810;48.270;9.996;2023-06-26T10:06:17;9.50;;;4.55;;
21301;SDS011;10810;48.270;9.996;2023-06-26T10:08:56;7.97;;;4.72;;
21301;SDS011;10810;48.270;9.996;2023-06-26T10:11:35;7.43;;;4.60;;
21301;SDS011;10810;48.270;9.996;2023-06-26T10:14:34;7.47;;;4.90;;
21301;SDS011;10810;48.270;9.996;2023-06-26T10:17:20;13.32;;;5.00;;
21301;SDS011;10810;48.270;9.996;2023-06-26T10:20:08;8.82;;;4.40;;
21301;SDS011;10810;48.270;9.996;2023-06-26T10:22:45;8.02;;;4.80;;
21301;SDS011;10810;48.270;9.996;2023-06-26T10:25:25;11.20;;;4.55;;
21301;SDS011;10810;48.270;9.996;2023-06-26T10:28:11;6.20;;;4.65;;
21301;SDS011;10810;48.270;9.996;2023-06-26T10:31:06;9.10;;;5.07;;
21301;SDS011;10810;48.270;9.996;2023-06-26T10:33:47;8.88;;;4.80;;
21301;SDS011;10810;48.270;9.996;2023-06-26T10:36:26;7.13;;;4.63;;
21301;SDS011;10810;48.270;9.996;2023-06-26T10:38:58;8.13;;;5.05;;
21301;SDS011;10810;48.270;9.996;2023-06-26T10:41:28;8.07;;;5.00;;
21301;SDS011;10810;48.270;9.996;2023-06-26T10:44:08;8.77;;;5.25;;
21301;SDS011;10810;48.270;9.996;2023-06-26T10:49:27;6.85;;;4.68;;
21301;SDS011;10810;48.270;9.996;2023-06-26T10:52:00;6.93;;;4.63;;
21301;SDS011;10810;48.270;9.996;2023-06-26T10:54:36;8.13;;;5.05;;
21301;SDS011;10810;48.270;9.996;2023-06-26T10:57:04;8.18;;;5.07;;
21301;SDS011;10810;48.270;9.996;2023-06-26T10:59:39;7.53;;;4.38;;
21301;SDS011;10810;48.270;9.996;2023-06-26T11:11:22;7.25;;;4.57;;
21301;SDS011;10810;48.270;9.996;2023-06-26T11:13:52;7.25;;;4.97;;
21301;SDS011;10810;48.270;9.996;2023-06-26T11:18:04;6.50;;;4.53;;
21301;SDS011;10810;48.270;9.996;2023-06-26T11:19:18;7.82;;;4.55;;
21301;SDS011;10810;48.270;9.996;2023-06-26T11:21:47;6.80;;;4.57;;
21301;SDS011;10810;48.270;9.996;2023-06-26T11:33:11;8.18;;;4.53;;
21301;SDS011;10810;48.270;9.996;2023-06-26T11:35:41;6.40;;;4.38;;
21301;SDS011;10810;48.270;9.996;2023-06-26T11:38:14;7.95;;;4.38;;
21301;SDS011;10810;48.270;9.996;2023-06-26T11:40:45;7.53;;;4.65;;
21301;SDS011;10810;48.270;9.996;2023-06-26T11:43:30;9.10;;;4.30;;
21301;SDS011;10810;48.270;9.996;2023-06-26T11:45:57;7.25;;;4.50;;
21301;SDS011;10810;48.270;9.996;2023-06-26T11:48:28;7.38;;;4.72;;
21301;SDS011;10810;48.270;9.996;2023-06-26T11:51:00;7.32;;;4.30;;
21301;SDS011;10810;48.270;9.996;2023-06-26T11:54:22;7.32;;;4.85;;
21301;SDS011;10810;48.270;9.996;2023-06-26T11:56:55;10.18;;;4.50;;
21301;SDS011;10810;48.270;9.996;2023-06-26T11:59:24;6.72;;;4.75;;
21301;SDS011;10810;48.270;9.996;2023-06-26T12:01:57;6.18;;;4.30;;
21301;SDS011;10810;48.270;9.996;2023-06-26T12:04:37;10.48;;;4.85;;
21301;SDS011;10810;48.270;9.996;2023-06-26T12:07:07;7.07;;;4.45;;
21301;SDS011;10810;48.270;9.996;2023-06-26T12:09:41;8.48;;;4.72;;
21301;SDS011;10810;48.270;9.996;2023-06-26T12:12:40;7.63;;;4.45;;
21301;SDS011;10810;48.270;9.996;2023-06-26T12:15:25;7.60;;;4.30;;
21301;SDS011;10810;48.270;9.996;2023-06-26T12:18:10;6.03;;;4.22;;
21301;SDS011;10810;48.270;9.996;2023-06-26T12:20:48;11.18;;;4.95;;
21301;SDS011;10810;48.270;9.996;2023-06-26T12:23:26;7.95;;;4.80;;
21301;SDS011;10810;48.270;9.996;2023-06-26T12:26:17;6.53;;;4.35;;
21301;SDS011;10810;48.270;9.996;2023-06-26T12:28:44;7.90;;;5.15;;
21301;SDS011;10810;48.270;9.996;2023-06-26T12:31:16;7.22;;;4.60;;
21301;SDS011;10810;48.270;9.996;2023-06-26T12:33:48;7.38;;;4.88;;
21301;SDS011;10810;48.270;9.996;2023-06-26T12:54:25;9.07;;;5.60;;
21301;SDS011;10810;48.270;9.996;2023-06-26T13:00:06;8.73;;;4.80;;
21301;SDS011;10810;48.270;9.996;2023-06-26T13:02:41;7.20;;;4.93;;
21301;SDS011;10810;48.270;9.996;2023-06-26T13:14:37;10.55;;;5.32;;
21301;SDS011;10810;48.270;9.996;2023-06-26T13:17:21;11.70;;;5.60;;
21301;SDS011;10810;48.270;9.996;2023-06-26T13:23:09;9.40;;;5.13;;
21301;SDS011;10810;48.270;9.996;2023-06-26T13:29:28;10.98;;;5.30;;
21301;SDS011;10810;48.270;9.996;2023-06-26T13:45:27;10.77;;;5.55;;
21301;SDS011;10810;48.270;9.996;2023-06-26T13:47:59;8.77;;;5.68;;
21301;SDS011;10810;48.270;9.996;2023-06-26T13:50:48;8.20;;;5.30;;
21301;SDS011;10810;48.270;9.996;2023-06-26T13:53:27;9.85;;;5.60;;
21301;SDS011;10810;48.270;9.996;2023-06-26T13:56:09;10.60;;;5.40;;
21301;SDS011;10810;48.270;9.996;2023-06-26T14:02:00;7.47;;;5.28;;
21301;SDS011;10810;48.270;9.996;2023-06-26T14:04:40;12.15;;;5.63;;
21301;SDS011;10810;48.270;9.996;2023-06-26T14:09:09;9.40;;;5.40;;
21301;SDS011;10810;48.270;9.996;2023-06-26T14:10:28;8.63;;;5.68;;
21301;SDS011;10810;48.270;9.996;2023-06-26T14:12:58;8.52;;;5.50;;
21301;SDS011;10810;48.270;9.996;2023-06-26T14:15:25;7.78;;;5.38;;
21301;SDS011;10810;48.270;9.996;2023-06-26T14:17:56;9.02;;;5.30;;
21301;SDS011;10810;48.270;9.996;2023-06-26T14:20:42;10.30;;;5.88;;
21301;SDS011;10810;48.270;9.996;2023-06-26T14:26:43;9.93;;;5.78;;
21301;SDS011;10810;48.270;9.996;2023-06-26T14:29:25;9.48;;;5.30;;
21301;SDS011;10810;48.270;9.996;2023-06-26T14:32:03;12.70;;;5.53;;
21301;SDS011;10810;48.270;9.996;2023-06-26T14:34:33;8.45;;;5.40;;
21301;SDS011;10810;48.270;9.996;2023-06-26T14:37:10;8.23;;;5.28;;
21301;SDS011;10810;48.270;9.996;2023-06-26T14:39:41;8.75;;;5.40;;
21301;SDS011;10810;48.270;9.996;2023-06-26T14:42:30;10.23;;;5.80;;
21301;SDS011;10810;48.270;9.996;2023-06-26T14:45:17;8.35;;;5.10;;
21301;SDS011;10810;48.270;9.996;2023-06-26T14:48:06;8.65;;;5.40;;
21301;SDS011;10810;48.270;9.996;2023-06-26T15:03:49;9.60;;;5.63;;
21301;SDS011;10810;48.270;9.996;2023-06-26T15:06:28;7.97;;;5.47;;
21301;SDS011;10810;48.270;9.996;2023-06-26T15:12:48;8.85;;;5.72;;
21301;SDS011;10810;48.270;9.996;2023-06-26T15:15:28;11.48;;;5.22;;
21301;SDS011;10810;48.270;9.996;2023-06-26T15:42:07;11.05;;;5.32;;
21301;SDS011;10810;48.270;9.996;2023-06-26T15:43:27;9.10;;;5.93;;
21301;SDS011;10810;48.270;9.996;2023-06-26T15:46:14;10.40;;;5.65;;
21301;SDS011;10810;48.270;9.996;2023-06-26T15:52:11;9.18;;;5.72;;
21301;SDS011;10810;48.270;9.996;2023-06-26T15:54:48;8.95;;;5.43;;
21301;SDS011;10810;48.270;9.996;2023-06-26T16:06:48;19.80;;;6.82;;
21301;SDS011;10810;48.270;9.996;2023-06-26T16:09:18;16.25;;;6.60;;
21301;SDS011;10810;48.270;9.996;2023-06-26T16:11:46;11.82;;;6.68;;
21301;SDS011;10810;48.270;9.996;2023-06-26T16:14:14;12.27;;;6.60;;
21301;SDS011;10810;48.270;9.996;2023-06-26T16:16:41;10.90;;;6.43;;
21301;SDS011;10810;48.270;9.996;2023-06-26T16:19:12;10.65;;;6.28;;
21301;SDS011;10810;48.270;9.996;2023-06-26T16:21:39;13.00;;;6.70;;
21301;SDS011;10810;48.270;9.996;2023-06-26T16:24:06;9.43;;;6.22;;
21301;SDS011;10810;48.270;9.996;2023-06-26T16:30:09;10.50;;;6.57;;
21301;SDS011;10810;48.270;9.996;2023-06-26T16:32:36;10.02;;;5.97;;
21301;SDS011;10810;48.270;9.996;2023-06-26T16:35:06;9.18;;;5.55;;
21301;SDS011;10810;48.270;9.996;2023-06-26T16:37:33;11.38;;;6.43;;
21301;SDS011;10810;48.270;9.996;2023-06-26T16:40:00;10.10;;;6.20;;
21301;SDS011;10810;48.270;9.996;2023-06-26T16:42:28;11.43;;;5.60;;
21301;SDS011;10810;48.270;9.996;2023-06-26T16:44:55;9.77;;;5.50;;
21301;SDS011;10810;48.270;9.996;2023-06-26T16:47:22;8.52;;;5.78;;
21301;SDS011;10810;48.270;9.996;2023-06-26T16:50:30;12.35;;;5.85;;
21301;SDS011;10810;48.270;9.996;2023-06-26T16:56:47;11.85;;;5.80;;
21301;SDS011;10810;48.270;9.996;2023-06-26T16:59:15;10.52;;;5.72;;
21301;SDS011;10810;48.270;9.996;2023-06-26T17:04:48;8.95;;;5.47;;
21301;SDS011;10810;48.270;9.996;2023-06-26T17:12:11;7.45;;;4.55;;
21301;SDS011;10810;48.270;9.996;2023-06-26T17:14:07;12.75;;;4.65;;
21301;SDS011;10810;48.270;9.996;2023-06-26T17:17:06;7.07;;;4.18;;
21301;SDS011;10810;48.270;9.996;2023-06-26T17:20:12;7.68;;;4.28;;
21301;SDS011;10810;48.270;9.996;2023-06-26T17:26:01;10.63;;;4.45;;
21301;SDS011;10810;48.270;9.996;2023-06-26T17:32:19;7.15;;;4.43;;
21301;SDS011;10810;48.270;9.996;2023-06-26T17:41:15;8.13;;;4.03;;
21301;SDS011;10810;48.270;9.996;2023-06-26T17:43:44;7.72;;;4.10;;
21301;SDS011;10810;48.270;9.996;2023-06-26T17:52:45;6.18;;;3.63;;
21301;SDS011;10810;48.270;9.996;2023-06-26T17:55:14;6.95;;;3.55;;
21301;SDS011;10810;48.270;9.996;2023-06-26T18:01:03;6.63;;;3.63;;
21301;SDS011;10810;48.270;9.996;2023-06-26T18:03:53;9.02;;;3.50;;
21301;SDS011;10810;48.270;9.996;2023-06-26T18:06:22;6.45;;;3.70;;
21301;SDS011;10810;48.270;9.996;2023-06-26T18:12:11;8.27;;;3.33;;
21301;SDS011;10810;48.270;9.996;2023-06-26T18:14:42;9.40;;;3.80;;
21301;SDS011;10810;48.270;9.996;2023-06-26T18:18:03;8.05;;;4.28;;
21301;SDS011;10810;48.270;9.996;2023-06-26T18:24:30;8.45;;;3.83;;
21301;SDS011;10810;48.270;9.996;2023-06-26T18:27:34;8.07;;;4.00;;
21301;SDS011;10810;48.270;9.996;2023-06-26T18:30:02;7.05;;;3.85;;
21301;SDS011;10810;48.270;9.996;2023-06-26T18:45:54;13.10;;;4.68;;
21301;SDS011;10810;48.270;9.996;2023-06-26T18:48:38;11.32;;;4.72;;
21301;SDS011;10810;48.270;9.996;2023-06-26T18:51:31;9.57;;;5.15;;
21301;SDS011;10810;48.270;9.996;2023-06-26T19:01:09;10.05;;;4.60;;
21301;SDS011;10810;48.270;9.996;2023-06-26T19:05:59;8.48;;;4.63;;
21301;SDS011;10810;48.270;9.996;2023-06-26T19:07:32;9.18;;;4.40;;
21301;SDS011;10810;48.270;9.996;2023-06-26T19:10:27;11.10;;;4.68;;
21301;SDS011;10810;48.270;9.996;2023-06-26T19:13:25;11.55;;;4.15;;
21301;SDS011;10810;48.270;9.996;2023-06-26T19:15:59;8.73;;;3.55;;
21301;SDS011;10810;48.270;9.996;2023-06-26T19:22:13;11.38;;;3.92;;
21301;SDS011;10810;48.270;9.996;2023-06-26T19:24:40;8.55;;;4.00;;
21301;SDS011;10810;48.270;9.996;2023-06-26T19:27:10;8.55;;;3.60;;
21301;SDS011;10810;48.270;9.996;2023-06-26T19:29:38;8.23;;;3.05;;
21301;SDS011;10810;48.270;9.996;2023-06-26T19:32:09;7.20;;;3.10;;
21301;SDS011;10810;48.270;9.996;2023-06-26T19:34:58;5.65;;;2.78;;
21301;SDS011;10810;48.270;9.996;2023-06-26T19:37:37;8.75;;;2.85;;
21301;SDS011;10810;48.270;9.996;2023-06-26T19:44:04;5.40;;;2.40;;
21301;SDS011;10810;48.270;9.996;2023-06-26T19:46:31;6.88;;;2.50;;
21301;SDS011;10810;48.270;9.996;2023-06-26T20:02:57;3.03;;;1.67;;
21301;SDS011;10810;48.270;9.996;2023-06-26T20:12:46;4.75;;;1.95;;
21301;SDS011;10810;48.270;9.996;2023-06-26T20:15:27;3.97;;;1.70;;
21301;SDS011;10810;48.270;9.996;2023-06-26T21:10:38;4.57;;;1.47;;
21301;SDS011;10810;48.270;9.996;2023-06-26T21:13:24;3.73;;;1.53;;
21301;SDS011;10810;48.270;9.996;2023-06-26T21:19:22;6.53;;;1.30;;
21301;SDS011;10810;48.270;9.996;2023-06-26T21:21:50;4.57;;;1.30;;
21301;SDS011;10810;48.270;9.996;2023-06-26T21:24:18;6.40;;;1.50;;
21301;SDS011;10810;48.270;9.996;2023-06-26T21:26:47;3.67;;;1.40;;
21301;SDS011;10810;48.270;9.996;2023-06-26T21:32:47;4.70;;;1.40;;
21301;SDS011;10810;48.270;9.996;2023-06-26T21:38:47;2.17;;;1.20;;
21301;SDS011;10810;48.270;9.996;2023-06-26T21:41:15;2.77;;;1.23;;
21301;SDS011;10810;48.270;9.996;2023-06-26T21:43:44;1.90;;;1.10;;
21301;SDS011;10810;48.270;9.996;2023-06-26T21:46:11;5.77;;;1.40;;
21301;SDS011;10810;48.270;9.996;2023-06-26T21:48:39;2.50;;;1.30;;
21301;SDS011;10810;48.270;9.996;2023-06-26T21:51:07;7.27;;;1.60;;
21301;SDS011;10810;48.270;9.996;2023-06-26T21:53:36;6.00;;;1.40;;
21301;SDS011;10810;48.270;9.996;2023-06-26T21:56:04;3.73;;;1.30;;